Time;durP1;ratioP1;P1;durP2;ratioP2;P2;SDS_P1;SDS_P2;PMS_P1;PMS_P2;Temp;Humidity;BMP_temperature;BMP_pressure;BME280_temperature;BME280_humidity;BME280_pressure;Samples;Min_cycle;Max_cycle;Signal;HPM_P1;HPM_P2
2021/06/07 00:00:08;;;;;;;1.98;1.23;;;;;;;14.94;100.00;95827.50;999428;29;20097;-80
2021/06/07 00:00:39;;;;;;;2.30;1.30;;;;;;;15.02;100.00;95839.88;1003509;29;20026;-80
2021/06/07 00:01:14;;;;;;;2.10;1.45;;;;;;;14.96;100.00;95830.00;1003877;29;20026;-80
2021/06/07 00:01:51;;;;;;;2.30;1.65;;;;;;;15.00;100.00;95855.31;1003666;29;20032;-79
2021/06/07 00:02:21;;;;;;;1.58;1.30;;;;;;;14.95;100.00;95857.78;1008017;29;20136;-80
2021/06/07 00:02:52;;;;;;;2.08;1.50;;;;;;;14.97;100.00;95853.84;1004024;29;20030;-80
2021/06/07 00:03:23;;;;;;;3.50;1.90;;;;;;;14.80;100.00;95847.25;1004228;29;20053;-79
2021/06/07 00:03:53;;;;;;;3.58;1.70;;;;;;;14.81;100.00;95852.41;1003744;29;20030;-80
2021/06/07 00:04:24;;;;;;;2.80;1.92;;;;;;;14.68;100.00;95842.53;1002700;29;20036;-80
2021/06/07 00:04:55;;;;;;;1.98;1.50;;;;;;;14.76;100.00;95841.50;1002706;29;20062;-80
2021/06/07 00:05:26;;;;;;;2.20;1.63;;;;;;;14.78;100.00;95842.13;1002399;29;20082;-81
2021/06/07 00:05:56;;;;;;;2.15;1.60;;;;;;;14.86;100.00;95855.28;1002587;29;20022;-81
2021/06/07 00:06:27;;;;;;;1.88;1.55;;;;;;;14.83;100.00;95846.88;997720;29;20030;-81
2021/06/07 00:06:59;;;;;;;4.35;1.70;;;;;;;14.82;100.00;95846.06;998769;29;20026;-81
2021/06/07 00:07:30;;;;;;;2.78;1.63;;;;;;;14.87;100.00;95854.28;1001327;29;20041;-81
2021/06/07 00:08:00;;;;;;;4.00;1.83;;;;;;;14.79;100.00;95843.78;1005526;29;20020;-80
2021/06/07 00:08:31;;;;;;;2.67;1.63;;;;;;;14.82;100.00;95846.06;1009550;29;20013;-80
2021/06/07 00:09:04;;;;;;;2.20;1.50;;;;;;;14.72;100.00;95826.91;1005825;29;20025;-80
2021/06/07 00:09:35;;;;;;;3.50;1.50;;;;;;;14.84;100.00;95841.31;1005638;29;20039;-81
2021/06/07 00:10:08;;;;;;;2.25;1.50;;;;;;;14.88;100.00;95839.88;1006075;29;20531;-81
2021/06/07 00:10:38;;;;;;;2.50;1.55;;;;;;;14.86;100.00;95836.56;998400;29;20030;-82
2021/06/07 00:11:09;;;;;;;2.35;1.50;;;;;;;14.79;100.00;95830.41;1009742;29;20017;-82
2021/06/07 00:11:43;;;;;;;3.20;1.48;;;;;;;14.89;100.00;95838.00;998436;29;20481;-80
2021/06/07 00:12:15;;;;;;;2.40;1.73;;;;;;;14.77;100.00;95824.44;1002572;29;20026;-81
2021/06/07 00:12:46;;;;;;;2.13;1.65;;;;;;;14.98;100.00;95852.84;1005792;29;20079;-81
2021/06/07 00:13:17;;;;;;;1.83;1.45;;;;;;;14.85;100.00;95840.28;998273;29;20030;-81
2021/06/07 00:13:48;;;;;;;2.60;1.67;;;;;;;14.87;100.00;95843.59;1005653;29;20115;-81
2021/06/07 00:14:20;;;;;;;2.70;1.60;;;;;;;14.84;100.00;95837.81;998086;29;20097;-80
2021/06/07 00:14:51;;;;;;;2.90;1.65;;;;;;;14.71;100.00;95826.06;998213;29;20442;-80
2021/06/07 00:15:22;;;;;;;2.50;1.70;;;;;;;14.84;100.00;95849.34;1001811;29;20042;-80
2021/06/07 00:15:54;;;;;;;3.08;1.83;;;;;;;14.81;100.00;95852.41;1005733;29;20571;-80
2021/06/07 00:16:24;;;;;;;3.50;1.50;;;;;;;14.73;100.00;95833.88;1001761;29;20502;-80
2021/06/07 00:16:55;;;;;;;1.80;1.30;;;;;;;14.86;100.00;95847.28;1001944;29;20055;-80
2021/06/07 00:17:26;;;;;;;2.80;2.00;;;;;;;14.86;100.00;95844.59;1002015;29;20110;-79
2021/06/07 00:17:56;;;;;;;2.58;1.80;;;;;;;14.93;100.00;95846.47;1009576;29;20017;-79
2021/06/07 00:18:27;;;;;;;4.72;1.75;;;;;;;14.90;100.00;95853.03;1005480;29;20033;-81
2021/06/07 00:19:08;;;;;;;2.38;1.75;;;;;;;14.88;100.00;95849.75;991425;29;20060;-81
2021/06/07 00:19:45;;;;;;;3.00;1.30;;;;;;;14.61;100.00;95811.47;997868;29;20129;-80
2021/06/07 00:20:40;;;;;;;2.78;1.55;;;;;;;14.85;100.00;95845.63;995072;29;20057;-80
2021/06/07 00:21:16;;;;;;;2.75;1.50;;;;;;;14.71;100.00;95831.41;990030;29;20063;-80
2021/06/07 00:21:58;;;;;;;2.10;1.45;;;;;;;14.77;100.00;95834.31;1006312;29;20024;-81
2021/06/07 00:22:29;;;;;;;2.28;1.48;;;;;;;14.80;100.00;95844.59;1001828;29;20071;-80
2021/06/07 00:23:02;;;;;;;1.90;1.33;;;;;;;14.82;100.00;95851.41;1009296;29;20025;-79
2021/06/07 00:23:34;;;;;;;3.05;1.38;;;;;;;14.60;100.00;95815.19;1009292;29;20126;-79
2021/06/07 00:24:05;;;;;;;1.92;1.38;;;;;;;14.85;100.00;95850.16;1013800;29;20044;-80
2021/06/07 00:24:36;;;;;;;3.90;1.60;;;;;;;14.86;100.00;95857.97;1005839;29;20017;-79
2021/06/07 00:25:08;;;;;;;4.20;1.58;;;;;;;14.82;100.00;95845.22;1004843;29;20454;-79
2021/06/07 00:25:39;;;;;;;2.03;1.60;;;;;;;14.74;100.00;95840.91;997909;29;20525;-79
2021/06/07 00:26:10;;;;;;;3.35;1.40;;;;;;;14.80;100.00;95839.25;1001520;29;20110;-79
2021/06/07 00:26:40;;;;;;;2.60;1.30;;;;;;;14.86;100.00;95852.63;1005234;29;20082;-80
2021/06/07 00:27:11;;;;;;;1.65;1.20;;;;;;;14.89;100.00;95846.88;997383;29;20119;-79
2021/06/07 00:27:42;;;;;;;3.10;1.58;;;;;;;14.72;100.00;95821.56;1001617;29;20018;-81
2021/06/07 00:28:13;;;;;;;2.53;1.58;;;;;;;14.87;100.00;95848.94;1001186;29;20018;-80
2021/06/07 00:28:44;;;;;;;1.90;1.50;;;;;;;14.81;100.00;95833.69;1005042;29;20025;-79
2021/06/07 00:29:15;;;;;;;2.05;1.50;;;;;;;14.88;100.00;95845.22;1001005;29;20025;-79
2021/06/07 00:29:46;;;;;;;3.03;1.50;;;;;;;14.88;100.00;95839.88;997244;29;20128;-79
2021/06/07 00:30:16;;;;;;;2.35;1.58;;;;;;;14.78;100.00;95822.59;1004644;29;20029;-79
2021/06/07 00:30:47;;;;;;;2.15;1.67;;;;;;;14.87;100.00;95838.25;997611;29;20027;-79
2021/06/07 00:31:18;;;;;;;2.80;1.80;;;;;;;14.82;100.00;95832.69;1004978;29;20021;-80
2021/06/07 00:31:48;;;;;;;2.38;1.70;;;;;;;14.88;100.00;95847.88;1005471;29;20465;-80
2021/06/07 00:32:19;;;;;;;2.40;1.52;;;;;;;14.77;100.00;95828.94;1001754;29;20402;-80
2021/06/07 00:32:50;;;;;;;2.10;1.30;;;;;;;14.72;100.00;95818.91;1009218;29;20043;-79
2021/06/07 00:33:20;;;;;;;2.65;1.52;;;;;;;14.86;100.00;95846.47;1005445;29;20557;-79
2021/06/07 00:33:51;;;;;;;3.10;1.90;;;;;;;14.86;100.00;95849.94;998268;29;20056;-80
2021/06/07 00:34:22;;;;;;;3.00;1.80;;;;;;;14.85;100.00;95850.16;998573;29;20019;-80
2021/06/07 00:34:52;;;;;;;3.58;1.98;;;;;;;14.82;100.00;95848.72;1006271;29;20030;-79
2021/06/07 00:35:24;;;;;;;2.72;1.70;;;;;;;14.85;100.00;95848.28;1010368;29;20029;-81
2021/06/07 00:35:54;;;;;;;2.92;1.80;;;;;;;14.87;100.00;95845.41;1007117;29;20029;-81
2021/06/07 00:36:26;;;;;;;2.78;1.83;;;;;;;14.64;100.00;95813.75;1006927;29;20022;-81
2021/06/07 00:36:56;;;;;;;3.38;2.03;;;;;;;14.80;100.00;95842.72;1002658;29;20026;-81
2021/06/07 00:37:27;;;;;;;1.90;1.60;;;;;;;14.78;100.00;95843.97;1010531;29;20085;-81
2021/06/07 00:37:58;;;;;;;3.65;1.75;;;;;;;14.80;100.00;95847.25;999389;29;20125;-80
2021/06/07 00:38:28;;;;;;;3.45;1.70;;;;;;;14.67;100.00;95837.41;1000133;29;20018;-81
2021/06/07 00:38:59;;;;;;;5.05;2.20;;;;;;;14.81;100.00;95855.09;1008820;29;20035;-81
2021/06/07 00:39:30;;;;;;;2.10;1.73;;;;;;;14.76;100.00;95843.38;1008550;29;20025;-80
2021/06/07 00:40:00;;;;;;;2.03;1.42;;;;;;;14.77;100.00;95845.84;1009319;29;20026;-80
2021/06/07 00:40:32;;;;;;;2.25;1.45;;;;;;;14.76;100.00;95841.50;1009127;29;20025;-80
2021/06/07 00:41:05;;;;;;;1.80;1.40;;;;;;;14.67;100.00;95834.72;1001592;29;20060;-80
2021/06/07 00:41:36;;;;;;;2.70;1.88;;;;;;;14.71;100.00;95844.78;1004949;29;20018;-80
2021/06/07 00:42:07;;;;;;;2.55;1.80;;;;;;;14.83;100.00;95855.69;1009514;29;20021;-79
2021/06/07 00:42:37;;;;;;;3.97;1.67;;;;;;;14.80;100.00;95847.25;1005347;29;20022;-80
2021/06/07 00:43:08;;;;;;;1.98;1.33;;;;;;;14.73;100.00;95841.91;1005199;29;20026;-79
2021/06/07 00:43:39;;;;;;;5.22;2.03;;;;;;;14.82;100.00;95853.22;1004836;29;20472;-80
2021/06/07 00:44:11;;;;;;;4.28;1.40;;;;;;;14.77;100.00;95842.31;1013077;29;20021;-79
2021/06/07 00:44:42;;;;;;;4.15;1.60;;;;;;;14.66;100.00;95843.75;1005868;29;20587;-79
2021/06/07 00:45:16;;;;;;;2.60;1.50;;;;;;;14.72;100.00;95845.63;1009058;29;20103;-79
2021/06/07 00:45:46;;;;;;;2.88;1.70;;;;;;;14.76;100.00;95843.38;1009075;29;20040;-79
2021/06/07 00:46:17;;;;;;;2.75;1.50;;;;;;;14.80;100.00;95847.25;1005104;29;20026;-80
2021/06/07 00:46:48;;;;;;;2.60;1.80;;;;;;;14.73;100.00;95833.88;1005217;29;20033;-79
2021/06/07 00:47:18;;;;;;;2.53;1.65;;;;;;;14.81;100.00;95844.38;1008786;29;20101;-79
2021/06/07 00:47:51;;;;;;;3.92;1.60;;;;;;;14.58;100.00;95811.84;1008915;29;20020;-79
2021/06/07 00:48:21;;;;;;;1.92;1.50;;;;;;;14.62;100.00;95826.50;1005159;29;20057;-79
2021/06/07 00:48:52;;;;;;;2.92;1.90;;;;;;;14.82;100.00;95848.72;1009072;29;20028;-79
2021/06/07 00:49:24;;;;;;;2.50;1.40;;;;;;;14.81;100.00;95846.25;1013029;29;20056;-79
2021/06/07 00:49:54;;;;;;;2.40;1.60;;;;;;;14.86;100.00;95849.94;1005029;29;20018;-81
2021/06/07 00:50:30;;;;;;;2.70;1.80;;;;;;;14.76;100.00;95838.03;1012809;29;20096;-79
2021/06/07 00:51:05;;;;;;;2.22;1.70;;;;;;;14.80;100.00;95847.25;1005388;29;20093;-79
2021/06/07 00:51:36;;;;;;;2.05;1.60;;;;;;;14.82;100.00;95846.06;1001819;29;20027;-80
2021/06/07 00:52:07;;;;;;;3.13;1.80;;;;;;;14.85;100.00;95856.31;1005300;29;20010;-79
2021/06/07 00:52:59;;;;;;;2.67;2.03;;;;;;;14.78;100.00;95834.09;1005164;29;20014;-79
2021/06/07 00:53:30;;;;;;;2.95;1.70;;;;;;;14.80;100.00;95842.72;1005054;29;20518;-79
2021/06/07 00:54:02;;;;;;;2.38;1.60;;;;;;;14.82;100.00;95839.84;1005223;29;20038;-79
2021/06/07 00:54:32;;;;;;;3.65;1.85;;;;;;;14.63;100.00;95812.09;1009264;29;20005;-80
2021/06/07 00:55:04;;;;;;;5.05;2.30;;;;;;;14.82;100.00;95848.72;1005546;29;20082;-80
2021/06/07 00:55:59;;;;;;;5.25;2.15;;;;;;;14.82;100.00;95850.56;1004995;29;20022;-80
2021/06/07 00:56:30;;;;;;;2.95;2.08;;;;;;;14.76;100.00;95841.50;1004937;29;20029;-80
2021/06/07 00:57:00;;;;;;;8.30;2.25;;;;;;;14.81;100.00;95848.94;1001897;29;20393;-80
2021/06/07 00:57:31;;;;;;;3.42;2.17;;;;;;;14.79;100.00;95843.78;1005543;29;20026;-79
2021/06/07 00:58:03;;;;;;;3.67;2.03;;;;;;;14.71;100.00;95827.94;1001375;29;20010;-79
2021/06/07 00:58:38;;;;;;;8.13;2.65;;;;;;;14.42;100.00;95783.66;1009075;29;20025;-79
2021/06/07 00:59:09;;;;;;;5.20;2.00;;;;;;;14.81;100.00;95844.38;1012775;29;20017;-79
2021/06/07 00:59:39;;;;;;;2.90;2.03;;;;;;;14.75;100.00;95836.38;1005099;29;20022;-80
2021/06/07 01:00:11;;;;;;;3.05;1.92;;;;;;;14.78;100.00;95841.31;1009013;29;20009;-78
2021/06/07 01:00:41;;;;;;;3.50;2.35;;;;;;;14.80;100.00;95849.94;1005426;29;20018;-79
2021/06/07 01:01:13;;;;;;;3.35;2.10;;;;;;;14.68;100.00;95823.00;1005614;29;20010;-79
2021/06/07 01:01:44;;;;;;;3.22;2.13;;;;;;;14.72;100.00;95832.25;1004901;29;20082;-79
2021/06/07 01:02:14;;;;;;;3.38;2.10;;;;;;;14.74;100.00;95840.09;1005190;29;20044;-79
2021/06/07 01:02:45;;;;;;;3.15;1.80;;;;;;;14.69;100.00;95832.66;1004942;29;20026;-79
2021/06/07 01:03:16;;;;;;;4.03;2.38;;;;;;;14.63;100.00;95823.63;1008941;29;20037;-79
2021/06/07 01:03:48;;;;;;;6.68;2.50;;;;;;;14.67;100.00;95832.06;1008889;29;20013;-79
2021/06/07 01:04:19;;;;;;;4.28;1.98;;;;;;;14.60;100.00;95812.50;1001019;29;20085;-79
2021/06/07 01:04:49;;;;;;;3.47;2.13;;;;;;;14.64;100.00;95835.13;1001675;29;20026;-80
2021/06/07 01:05:20;;;;;;;3.90;1.88;;;;;;;14.65;100.00;95847.47;1001529;29;20014;-80
2021/06/07 01:05:51;;;;;;;5.88;1.98;;;;;;;14.46;100.00;95812.47;1009314;29;20032;-79
2021/06/07 01:06:22;;;;;;;2.33;1.73;;;;;;;14.65;100.00;95839.47;1005347;29;20018;-78
2021/06/07 01:06:52;;;;;;;4.22;2.10;;;;;;;14.66;100.00;95836.59;1012798;29;20092;-80
2021/06/07 01:07:23;;;;;;;4.05;1.77;;;;;;;14.58;100.00;95827.88;1013020;29;20025;-80
2021/06/07 01:07:54;;;;;;;3.28;1.83;;;;;;;14.50;100.00;95818.22;1005408;29;20085;-79
2021/06/07 01:08:25;;;;;;;7.00;2.33;;;;;;;14.66;100.00;95841.94;1009142;29;20010;-79
2021/06/07 01:08:55;;;;;;;5.10;2.35;;;;;;;14.64;100.00;95835.94;1001599;29;20022;-80
2021/06/07 01:09:26;;;;;;;2.47;1.92;;;;;;;14.74;100.00;95838.22;1001644;29;20034;-80
2021/06/07 01:09:56;;;;;;;2.63;1.95;;;;;;;14.70;100.00;95840.47;1005349;29;20032;-80
2021/06/07 01:10:27;;;;;;;5.15;2.85;;;;;;;14.56;100.00;95840.63;1005365;29;20058;-79
2021/06/07 01:10:58;;;;;;;3.58;2.60;;;;;;;14.49;100.00;95833.44;1001380;29;20037;-79
2021/06/07 01:11:29;;;;;;;3.20;2.38;;;;;;;14.36;100.00;95814.72;1001358;29;20026;-80
2021/06/07 01:11:59;;;;;;;4.22;2.40;;;;;;;14.46;100.00;95823.16;1005071;29;20049;-80
2021/06/07 01:12:30;;;;;;;4.07;2.45;;;;;;;14.40;100.00;95815.94;1004815;29;20041;-79
2021/06/07 01:13:01;;;;;;;3.22;1.95;;;;;;;14.58;100.00;95833.22;1004825;29;20026;-80
2021/06/07 01:13:33;;;;;;;4.60;2.40;;;;;;;14.52;100.00;95830.38;1001552;29;20026;-80
2021/06/07 01:14:04;;;;;;;3.40;2.20;;;;;;;14.47;100.00;95810.59;1008634;29;20033;-79
2021/06/07 01:14:35;;;;;;;2.95;2.30;;;;;;;14.51;100.00;95827.91;1009371;29;20029;-79
2021/06/07 01:15:08;;;;;;;2.95;2.22;;;;;;;14.55;100.00;95828.31;1005566;29;20017;-80
2021/06/07 01:15:38;;;;;;;2.97;2.25;;;;;;;14.57;100.00;95823.59;1009472;29;20038;-80
2021/06/07 01:16:09;;;;;;;3.42;2.05;;;;;;;14.55;100.00;95823.78;1008780;29;20064;-80
2021/06/07 01:16:40;;;;;;;2.47;1.80;;;;;;;14.56;100.00;95824.59;1005607;29;20033;-80
2021/06/07 01:17:10;;;;;;;2.88;1.95;;;;;;;14.61;100.00;95816.81;1001525;29;20036;-81
2021/06/07 01:17:41;;;;;;;4.25;1.83;;;;;;;14.71;100.00;95833.28;1003767;29;20026;-79
2021/06/07 01:18:12;;;;;;;2.97;2.00;;;;;;;14.59;100.00;95817.03;1008474;29;20006;-80
2021/06/07 01:18:43;;;;;;;3.00;2.15;;;;;;;14.67;100.00;95830.19;1012359;29;20032;-80
2021/06/07 01:19:13;;;;;;;2.92;1.90;;;;;;;14.67;100.00;95838.22;1000399;29;20026;-79
2021/06/07 01:19:44;;;;;;;3.13;1.95;;;;;;;14.68;100.00;95839.03;1005405;29;20046;-79
2021/06/07 01:20:17;;;;;;;2.88;2.03;;;;;;;14.64;100.00;95833.28;997680;29;20536;-79
2021/06/07 01:20:48;;;;;;;2.85;2.08;;;;;;;14.67;100.00;95838.22;997918;29;20517;-79
2021/06/07 01:21:22;;;;;;;3.70;2.38;;;;;;;14.65;100.00;95837.59;1011821;29;20017;-79
2021/06/07 01:22:03;;;;;;;2.83;2.13;;;;;;;14.54;100.00;95824.78;1003699;29;20512;-79
2021/06/07 01:22:34;;;;;;;3.05;2.00;;;;;;;14.64;100.00;95837.81;1002629;29;20029;-80
2021/06/07 01:23:05;;;;;;;3.05;2.10;;;;;;;14.53;100.00;95815.97;1013341;29;20029;-80
2021/06/07 01:23:36;;;;;;;5.63;2.42;;;;;;;14.52;100.00;95819.69;1008578;29;20029;-78
2021/06/07 01:24:07;;;;;;;2.60;1.85;;;;;;;14.64;100.00;95835.13;1004785;29;20026;-80
2021/06/07 01:24:37;;;;;;;2.75;1.90;;;;;;;14.57;100.00;95823.59;1001171;29;20042;-79
2021/06/07 01:25:32;;;;;;;3.08;2.00;;;;;;;14.61;100.00;95835.53;1000850;29;20071;-79
2021/06/07 01:26:04;;;;;;;3.13;1.90;;;;;;;14.62;100.00;95821.97;993322;29;20410;-80
2021/06/07 01:26:35;;;;;;;2.30;1.90;;;;;;;14.63;100.00;95825.44;1001282;29;20053;-81
2021/06/07 01:27:06;;;;;;;3.45;1.70;;;;;;;14.62;100.00;95824.63;1005093;29;20490;-81
2021/06/07 01:27:37;;;;;;;4.00;2.03;;;;;;;14.53;100.00;95815.97;1001015;29;20018;-80
2021/06/07 01:28:09;;;;;;;2.40;1.80;;;;;;;14.52;100.00;95830.38;1008373;29;20112;-80
2021/06/07 01:28:40;;;;;;;2.40;1.80;;;;;;;14.57;100.00;95835.09;1000835;29;20113;-81
2021/06/07 01:29:11;;;;;;;4.60;2.20;;;;;;;14.54;100.00;95835.47;1004756;29;20086;-81
2021/06/07 01:29:41;;;;;;;3.38;2.08;;;;;;;14.60;100.00;95834.72;1004542;29;20596;-80
2021/06/07 01:30:14;;;;;;;2.72;2.13;;;;;;;14.59;100.00;95845.59;1004731;29;20055;-79
2021/06/07 01:30:46;;;;;;;3.33;2.33;;;;;;;14.51;100.00;95825.22;1000922;29;20022;-79
2021/06/07 01:31:17;;;;;;;5.60;2.40;;;;;;;14.58;100.00;95831.44;1008747;29;20021;-80
2021/06/07 01:31:48;;;;;;;2.97;2.28;;;;;;;14.60;100.00;95839.25;997457;29;20022;-79
2021/06/07 01:32:18;;;;;;;2.47;2.10;;;;;;;14.44;100.00;95816.38;1000874;29;20098;-79
2021/06/07 01:32:49;;;;;;;2.95;1.80;;;;;;;14.60;100.00;95847.25;993569;29;20067;-80
2021/06/07 01:33:21;;;;;;;4.75;2.28;;;;;;;14.60;100.00;95832.03;997008;29;20027;-80
2021/06/07 01:33:53;;;;;;;2.95;2.28;;;;;;;14.64;100.00;95843.16;996906;29;20099;-80
2021/06/07 01:34:24;;;;;;;2.50;1.88;;;;;;;14.51;100.00;95818.03;993599;29;20019;-79
2021/06/07 01:34:54;;;;;;;3.50;2.10;;;;;;;14.63;100.00;95846.84;997576;29;20393;-79
2021/06/07 01:35:25;;;;;;;3.47;2.30;;;;;;;14.61;100.00;95844.38;997333;29;20428;-79
2021/06/07 01:36:00;;;;;;;3.60;2.28;;;;;;;14.58;100.00;95831.44;1001341;29;20067;-79
2021/06/07 01:36:30;;;;;;;3.17;2.22;;;;;;;14.63;100.00;95838.81;1001248;29;20018;-79
2021/06/07 01:37:02;;;;;;;3.28;2.00;;;;;;;14.56;100.00;95824.59;1001519;29;20412;-79
2021/06/07 01:37:33;;;;;;;3.05;2.25;;;;;;;14.68;100.00;95841.69;997233;29;20029;-79
2021/06/07 01:38:05;;;;;;;3.15;1.90;;;;;;;14.50;100.00;95813.69;1004819;29;20032;-79
2021/06/07 01:38:36;;;;;;;3.15;1.83;;;;;;;14.59;100.00;95826.91;1005044;29;20047;-80
2021/06/07 01:39:06;;;;;;;3.05;2.03;;;;;;;14.65;100.00;95839.47;1005019;29;20100;-79
2021/06/07 01:39:37;;;;;;;2.92;2.17;;;;;;;14.62;100.00;95838.00;1001118;29;20018;-81
2021/06/07 01:40:09;;;;;;;3.22;2.22;;;;;;;14.66;100.00;95841.94;1001158;29;20036;-80
2021/06/07 01:40:42;;;;;;;3.78;2.10;;;;;;;14.68;100.00;95847.03;1001125;29;20018;-80
2021/06/07 01:41:14;;;;;;;4.55;2.00;;;;;;;14.61;100.00;95832.84;997514;29;20050;-80
2021/06/07 01:41:45;;;;;;;4.63;2.25;;;;;;;14.57;100.00;95835.09;997229;29;20040;-79
2021/06/07 01:42:15;;;;;;;6.35;2.25;;;;;;;14.57;100.00;95831.59;1001155;29;20491;-79
2021/06/07 01:42:46;;;;;;;3.67;2.60;;;;;;;14.53;100.00;95837.34;1004952;29;20532;-79
2021/06/07 01:43:17;;;;;;;4.07;2.50;;;;;;;14.61;100.00;95844.38;993598;29;20019;-79
2021/06/07 01:43:47;;;;;;;3.25;2.35;;;;;;;14.52;100.00;95829.53;1000897;29;20018;-80
2021/06/07 01:44:18;;;;;;;3.60;2.38;;;;;;;14.62;100.00;95848.69;1008436;29;20450;-78
2021/06/07 01:44:49;;;;;;;3.47;2.33;;;;;;;14.56;100.00;95829.94;1004789;29;20013;-80
2021/06/07 01:45:21;;;;;;;4.05;2.50;;;;;;;14.50;100.00;95824.38;1004851;29;20036;-79
2021/06/07 01:45:51;;;;;;;3.40;2.33;;;;;;;14.43;100.00;95817.38;997251;29;20432;-79
2021/06/07 01:46:22;;;;;;;2.63;2.00;;;;;;;14.57;100.00;95844.97;997101;29;20030;-79
2021/06/07 01:46:53;;;;;;;3.33;2.25;;;;;;;14.52;100.00;95837.53;1000988;29;20025;-79
2021/06/07 01:47:23;;;;;;;4.05;2.20;;;;;;;14.55;100.00;95834.47;1004855;29;20037;-79
2021/06/07 01:47:54;;;;;;;3.70;2.10;;;;;;;14.63;100.00;95844.16;997148;29;20030;-79
2021/06/07 01:48:25;;;;;;;3.63;2.33;;;;;;;14.56;100.00;95844.16;997087;29;20037;-79
2021/06/07 01:48:56;;;;;;;2.67;2.15;;;;;;;14.60;100.00;95845.41;997368;29;20117;-79
2021/06/07 01:49:26;;;;;;;3.00;2.05;;;;;;;14.41;100.00;95804.22;1002125;29;20032;-79
2021/06/07 01:49:57;;;;;;;2.90;2.30;;;;;;;14.64;100.00;95845.81;1001716;29;20098;-80
2021/06/07 01:50:28;;;;;;;3.60;1.90;;;;;;;14.64;100.00;95843.97;1001492;29;20154;-80
2021/06/07 01:50:59;;;;;;;4.95;2.03;;;;;;;14.60;100.00;95839.25;1005717;29;20025;-79
2021/06/07 01:51:30;;;;;;;4.72;2.22;;;;;;;14.62;100.00;95839.84;1002037;29;20026;-80
2021/06/07 01:52:01;;;;;;;3.80;2.10;;;;;;;14.60;100.00;95841.91;997874;29;20501;-81
2021/06/07 01:52:33;;;;;;;3.90;2.15;;;;;;;14.40;100.00;95817.78;1001590;29;20038;-79
2021/06/07 01:53:04;;;;;;;3.60;2.50;;;;;;;14.54;100.00;95840.81;1005696;29;20125;-80
2021/06/07 01:53:35;;;;;;;3.17;2.67;;;;;;;14.37;100.00;95828.88;1001447;29;20018;-79
2021/06/07 01:54:06;;;;;;;3.10;2.30;;;;;;;14.44;100.00;95841.25;1001790;29;20018;-80
2021/06/07 01:54:37;;;;;;;3.72;2.33;;;;;;;14.36;100.00;95832.59;1005490;29;20021;-80
2021/06/07 01:55:08;;;;;;;3.28;2.30;;;;;;;14.38;100.00;95828.69;1005544;29;20022;-79
2021/06/07 01:55:41;;;;;;;5.45;2.60;;;;;;;14.44;100.00;95835.09;1013528;29;20017;-80
2021/06/07 01:56:11;;;;;;;5.30;2.60;;;;;;;14.43;100.00;95841.44;1005429;29;20085;-80
2021/06/07 01:56:42;;;;;;;4.53;2.72;;;;;;;14.37;100.00;95823.53;1001453;29;20063;-79
2021/06/07 01:57:13;;;;;;;4.32;2.67;;;;;;;14.35;100.00;95823.75;1005529;29;20026;-80
2021/06/07 01:57:44;;;;;;;3.65;2.65;;;;;;;14.34;100.00;95814.09;1001789;29;20111;-80
2021/06/07 01:58:16;;;;;;;3.25;2.58;;;;;;;14.36;100.00;95824.56;1008894;29;20021;-81
2021/06/07 01:58:46;;;;;;;4.25;2.63;;;;;;;14.34;100.00;95811.41;1009373;29;20018;-81
2021/06/07 01:59:17;;;;;;;5.00;2.88;;;;;;;14.47;100.00;95838.16;1005587;29;20014;-81
2021/06/07 01:59:47;;;;;;;3.65;2.20;;;;;;;14.43;100.00;95825.41;1005357;29;20018;-80
2021/06/07 02:00:23;;;;;;;4.18;2.33;;;;;;;14.48;100.00;95834.44;994295;29;20011;-80
2021/06/07 02:00:56;;;;;;;4.03;2.72;;;;;;;14.38;100.00;95815.31;993799;29;20023;-79
2021/06/07 02:01:26;;;;;;;3.75;2.22;;;;;;;14.48;100.00;95829.09;997931;29;20392;-79
2021/06/07 02:01:57;;;;;;;5.80;2.53;;;;;;;14.49;100.00;95824.56;1001616;29;20022;-80
2021/06/07 02:02:28;;;;;;;3.55;2.70;;;;;;;14.49;100.00;95824.56;1001611;29;20117;-79
2021/06/07 02:02:58;;;;;;;3.60;2.45;;;;;;;14.52;100.00;95830.38;1005193;29;20017;-79
2021/06/07 02:03:29;;;;;;;2.80;2.17;;;;;;;14.52;100.00;95816.16;1001785;29;20026;-80
2021/06/07 02:04:00;;;;;;;4.90;2.55;;;;;;;14.55;100.00;95823.78;1001876;29;20408;-80
2021/06/07 02:04:30;;;;;;;3.88;2.80;;;;;;;14.51;100.00;95830.56;1005627;29;20024;-80
2021/06/07 02:05:02;;;;;;;3.83;2.50;;;;;;;14.46;100.00;95828.50;998142;29;20465;-80
2021/06/07 02:05:34;;;;;;;5.50;2.85;;;;;;;14.50;100.00;95835.06;1002276;29;20028;-80
2021/06/07 02:06:06;;;;;;;3.53;2.72;;;;;;;14.44;100.00;95829.75;1005895;29;20021;-80
2021/06/07 02:06:36;;;;;;;4.20;2.83;;;;;;;14.43;100.00;95826.22;1009652;29;20131;-79
2021/06/07 02:07:07;;;;;;;3.72;2.70;;;;;;;14.40;100.00;95826.63;1001790;29;20062;-80
2021/06/07 02:07:54;;;;;;;4.55;3.35;;;;;;;14.46;100.00;95833.03;1009713;29;20077;-80
2021/06/07 02:08:29;;;;;;;4.32;3.17;;;;;;;14.47;100.00;95843.50;1002005;29;20022;-80
2021/06/07 02:09:00;;;;;;;4.63;3.42;;;;;;;14.33;100.00;95823.97;1006566;29;20013;-80
2021/06/07 02:09:31;;;;;;;3.50;2.58;;;;;;;14.26;100.00;95798.25;998914;29;20011;-82
2021/06/07 02:10:02;;;;;;;3.88;3.00;;;;;;;14.39;100.00;95822.31;1005999;29;20108;-83
2021/06/07 02:10:36;;;;;;;5.07;3.00;;;;;;;14.46;100.00;95838.38;1006491;29;20400;-84
2021/06/07 02:11:12;;;;;;;3.53;2.92;;;;;;;14.35;100.00;95829.09;999951;29;20015;-83
2021/06/07 02:11:42;;;;;;;3.63;2.60;;;;;;;14.48;100.00;95839.81;1007503;29;20480;-84
2021/06/07 02:12:13;;;;;;;3.75;2.60;;;;;;;14.31;100.00;95806.47;1001520;29;20014;-83
2021/06/07 02:12:44;;;;;;;3.72;2.58;;;;;;;14.50;100.00;95840.41;1009485;29;20017;-84
2021/06/07 02:13:15;;;;;;;3.67;2.47;;;;;;;14.41;100.00;95827.47;1005608;29;20024;-81
2021/06/07 02:13:47;;;;;;;3.03;2.40;;;;;;;14.49;100.00;95837.94;998077;29;20537;-82
2021/06/07 02:14:18;;;;;;;3.72;2.92;;;;;;;14.46;100.00;95831.16;1013412;29;20013;-81
2021/06/07 02:14:48;;;;;;;6.82;2.95;;;;;;;14.47;100.00;95830.16;1005627;29;20018;-83
2021/06/07 02:15:19;;;;;;;4.43;2.67;;;;;;;14.45;100.00;95829.50;1001920;29;20430;-85
2021/06/07 02:16:15;;;;;;;4.05;2.85;;;;;;;14.50;100.00;95837.75;1002454;29;20074;-81
2021/06/07 02:16:46;;;;;;;4.07;2.55;;;;;;;14.55;100.00;95837.16;1003486;29;20017;-82
2021/06/07 02:17:16;;;;;;;3.80;2.90;;;;;;;14.51;100.00;95839.41;998161;29;20026;-80
2021/06/07 02:17:47;;;;;;;3.28;2.08;;;;;;;14.39;100.00;95824.19;1006332;29;20032;-81
2021/06/07 02:18:18;;;;;;;4.20;2.65;;;;;;;14.41;100.00;95824.78;1005819;29;20018;-80
2021/06/07 02:18:48;;;;;;;2.90;2.25;;;;;;;14.47;100.00;95837.31;1005962;29;20018;-80
2021/06/07 02:19:19;;;;;;;2.90;2.30;;;;;;;14.42;100.00;95835.28;1001751;29;20044;-80
2021/06/07 02:19:50;;;;;;;4.03;2.38;;;;;;;14.23;100.00;95801.31;1002079;29;20390;-80
2021/06/07 02:20:22;;;;;;;5.03;2.53;;;;;;;14.50;100.00;95832.41;1009833;29;20032;-80
2021/06/07 02:20:52;;;;;;;3.85;2.60;;;;;;;14.45;100.00;95828.69;1002357;29;20478;-81
2021/06/07 02:21:24;;;;;;;3.78;2.72;;;;;;;14.40;100.00;95821.28;1007720;29;20047;-80
2021/06/07 02:21:55;;;;;;;2.97;2.05;;;;;;;14.48;100.00;95838.97;1000615;29;20086;-79
2021/06/07 02:22:25;;;;;;;2.72;2.28;;;;;;;14.58;100.00;95838.56;1002031;29;20006;-81
2021/06/07 02:22:56;;;;;;;5.07;2.13;;;;;;;14.44;100.00;95830.56;1005637;29;20032;-79
2021/06/07 02:23:27;;;;;;;3.58;2.47;;;;;;;14.31;100.00;95811.81;1009436;29;20025;-80
2021/06/07 02:23:57;;;;;;;7.75;2.97;;;;;;;14.46;100.00;95836.50;1009417;29;20031;-80
2021/06/07 02:24:28;;;;;;;2.92;2.15;;;;;;;14.41;100.00;95825.59;1005787;29;20025;-81
2021/06/07 02:24:58;;;;;;;4.13;2.80;;;;;;;14.56;100.00;95837.97;1009776;29;20018;-81
2021/06/07 02:25:29;;;;;;;5.88;2.70;;;;;;;14.50;100.00;95826.25;1009478;29;20025;-80
2021/06/07 02:26:00;;;;;;;3.05;2.50;;;;;;;14.57;100.00;95839.63;1001857;29;20063;-81
2021/06/07 02:26:31;;;;;;;3.83;2.15;;;;;;;14.58;100.00;95842.13;1013546;29;20021;-80
2021/06/07 02:27:01;;;;;;;4.65;2.63;;;;;;;14.52;100.00;95830.38;1009907;29;20051;-80
2021/06/07 02:27:32;;;;;;;3.33;2.40;;;;;;;14.53;100.00;95829.31;1009454;29;20054;-80
2021/06/07 02:28:03;;;;;;;4.00;2.50;;;;;;;14.57;100.00;95832.41;1011364;29;20069;-80